sensor_id;sensor_type;location;lat;lon;timestamp;pressure;altitude;pressure_sealevel;temperature;humidity
71126;BME280;58785;55.566;38.058;2023-08-06T00:00:23;100609.09;;;20.80;83.42
71126;BME280;58785;55.566;38.058;2023-08-06T00:02:49;100603.03;;;20.78;83.16
71126;BME280;58785;55.566;38.058;2023-08-06T00:05:15;100607.41;;;20.79;83.13
71126;BME280;58785;55.566;38.058;2023-08-06T00:07:44;100611.38;;;20.76;83.08
71126;BME280;58785;55.566;38.058;2023-08-06T00:10:10;100611.75;;;20.73;83.01
71126;BME280;58785;55.566;38.058;2023-08-06T00:12:36;100604.03;;;20.70;83.15
71126;BME280;58785;55.566;38.058;2023-08-06T00:15:02;100616.56;;;20.71;83.42
71126;BME280;58785;55.566;38.058;2023-08-06T00:17:30;100600.44;;;20.63;83.15
71126;BME280;58785;55.566;38.058;2023-08-06T00:19:56;100620.72;;;20.67;83.34
71126;BME280;58785;55.566;38.058;2023-08-06T00:22:22;100607.13;;;20.60;83.38
71126;BME280;58785;55.566;38.058;2023-08-06T00:24:49;100614.22;;;20.61;83.31
71126;BME280;58785;55.566;38.058;2023-08-06T00:27:15;100604.00;;;20.57;83.51
71126;BME280;58785;55.566;38.058;2023-08-06T00:29:40;100610.88;;;20.59;83.31
71126;BME280;58785;55.566;38.058;2023-08-06T00:32:06;100614.41;;;20.60;83.16
71126;BME280;58785;55.566;38.058;2023-08-06T00:34:31;100608.16;;;20.59;83.11
71126;BME280;58785;55.566;38.058;2023-08-06T00:36:57;100607.53;;;20.57;83.17
71126;BME280;58785;55.566;38.058;2023-08-06T00:39:23;100605.88;;;20.56;83.24
71126;BME280;58785;55.566;38.058;2023-08-06T00:41:48;100605.41;;;20.53;83.43
71126;BME280;58785;55.566;38.058;2023-08-06T00:44:14;100598.53;;;20.50;83.41
71126;BME280;58785;55.566;38.058;2023-08-06T00:46:40;100613.75;;;20.51;83.24
71126;BME280;58785;55.566;38.058;2023-08-06T00:49:06;100616.84;;;20.48;83.19
71126;BME280;58785;55.566;38.058;2023-08-06T00:51:32;100613.94;;;20.50;83.33
71126;BME280;58785;55.566;38.058;2023-08-06T00:53:59;100608.31;;;20.45;83.40
71126;BME280;58785;55.566;38.058;2023-08-06T00:56:25;100613.91;;;20.43;83.37
71126;BME280;58785;55.566;38.058;2023-08-06T00:58:51;100611.00;;;20.45;83.15
71126;BME280;58785;55.566;38.058;2023-08-06T01:01:16;100614.56;;;20.45;83.22
71126;BME280;58785;55.566;38.058;2023-08-06T01:03:42;100617.28;;;20.45;83.08
71126;BME280;58785;55.566;38.058;2023-08-06T01:06:08;100611.34;;;20.42;82.96
71126;BME280;58785;55.566;38.058;2023-08-06T01:08:56;100618.66;;;20.41;82.90
71126;BME280;58785;55.566;38.058;2023-08-06T01:12:11;100622.03;;;20.43;83.00
71126;BME280;58785;55.566;38.058;2023-08-06T01:14:18;100618.66;;;20.41;82.98
71126;BME280;58785;55.566;38.058;2023-08-06T01:16:50;100612.59;;;20.39;82.88
71126;BME280;58785;55.566;38.058;2023-08-06T01:19:19;100628.66;;;20.41;82.89
71126;BME280;58785;55.566;38.058;2023-08-06T01:21:45;100620.72;;;20.39;83.03
71126;BME280;58785;55.566;38.058;2023-08-06T01:24:11;100612.81;;;20.37;83.36
71126;BME280;58785;55.566;38.058;2023-08-06T01:26:48;100614.69;;;20.37;82.95
71126;BME280;58785;55.566;38.058;2023-08-06T01:29:24;100608.81;;;20.33;82.99
71126;BME280;58785;55.566;38.058;2023-08-06T01:31:52;100604.44;;;20.32;82.99
71126;BME280;58785;55.566;38.058;2023-08-06T01:34:22;100623.00;;;20.35;82.96
71126;BME280;58785;55.566;38.058;2023-08-06T01:36:50;100623.59;;;20.31;82.76
71126;BME280;58785;55.566;38.058;2023-08-06T01:39:16;100632.34;;;20.33;83.01
71126;BME280;58785;55.566;38.058;2023-08-06T01:41:41;100626.69;;;20.28;82.83
71126;BME280;58785;55.566;38.058;2023-08-06T01:44:07;100623.16;;;20.27;82.78
71126;BME280;58785;55.566;38.058;2023-08-06T01:46:33;100636.28;;;20.30;83.04
71126;BME280;58785;55.566;38.058;2023-08-06T01:48:59;100625.88;;;20.27;82.86
71126;BME280;58785;55.566;38.058;2023-08-06T01:51:24;100624.81;;;20.28;82.85
71126;BME280;58785;55.566;38.058;2023-08-06T01:53:51;100640.47;;;20.33;82.65
71126;BME280;58785;55.566;38.058;2023-08-06T01:56:16;100636.72;;;20.34;82.65
71126;BME280;58785;55.566;38.058;2023-08-06T01:58:42;100635.25;;;20.31;82.85
71126;BME280;58785;55.566;38.058;2023-08-06T02:01:07;100639.63;;;20.32;82.78
71126;BME280;58785;55.566;38.058;2023-08-06T02:03:33;100643.38;;;20.31;82.57
71126;BME280;58785;55.566;38.058;2023-08-06T02:05:59;100640.47;;;20.33;82.62
71126;BME280;58785;55.566;38.058;2023-08-06T02:08:24;100640.31;;;20.34;82.51
71126;BME280;58785;55.566;38.058;2023-08-06T02:10:50;100645.50;;;20.36;82.47
71126;BME280;58785;55.566;38.058;2023-08-06T02:13:15;100647.56;;;20.34;82.30
71126;BME280;58785;55.566;38.058;2023-08-06T02:15:42;100646.34;;;20.36;82.46
71126;BME280;58785;55.566;38.058;2023-08-06T02:18:09;100652.41;;;20.38;82.16
71126;BME280;58785;55.566;38.058;2023-08-06T02:20:34;100648.06;;;20.44;82.09
71126;BME280;58785;55.566;38.058;2023-08-06T02:23:00;100652.91;;;20.49;82.05
71126;BME280;58785;55.566;38.058;2023-08-06T02:25:26;100654.78;;;20.48;81.94
71126;BME280;58785;55.566;38.058;2023-08-06T02:27:51;100662.78;;;20.56;81.91
71126;BME280;58785;55.566;38.058;2023-08-06T02:30:17;100666.09;;;20.58;81.69
71126;BME280;58785;55.566;38.058;2023-08-06T02:32:43;100666.16;;;20.65;81.66
71126;BME280;58785;55.566;38.058;2023-08-06T02:35:09;100662.84;;;20.70;81.63
71126;BME280;58785;55.566;38.058;2023-08-06T02:37:34;100675.59;;;20.76;81.54
71126;BME280;58785;55.566;38.058;2023-08-06T02:40:00;100666.22;;;20.78;81.52
71126;BME280;58785;55.566;38.058;2023-08-06T02:42:26;100671.47;;;20.86;81.46
71126;BME280;58785;55.566;38.058;2023-08-06T02:44:52;100669.69;;;21.07;80.84
71126;BME280;58785;55.566;38.058;2023-08-06T02:47:20;100677.28;;;21.24;80.49
71126;BME280;58785;55.566;38.058;2023-08-06T02:49:46;100674.84;;;21.43;79.88
71126;BME280;58785;55.566;38.058;2023-08-06T02:52:12;100671.97;;;21.58;79.68
71126;BME280;58785;55.566;38.058;2023-08-06T02:54:38;100667.81;;;21.81;79.69
71126;BME280;58785;55.566;38.058;2023-08-06T02:57:04;100656.81;;;22.09;78.83
71126;BME280;58785;55.566;38.058;2023-08-06T02:59:31;100660.75;;;22.33;78.20
71126;BME280;58785;55.566;38.058;2023-08-06T03:01:57;100665.31;;;22.53;77.88
71126;BME280;58785;55.566;38.058;2023-08-06T03:04:23;100671.75;;;22.78;77.42
71126;BME280;58785;55.566;38.058;2023-08-06T03:06:50;100665.66;;;22.96;76.61
71126;BME280;58785;55.566;38.058;2023-08-06T03:09:16;100667.25;;;23.17;76.21
71126;BME280;58785;55.566;38.058;2023-08-06T03:11:42;100669.91;;;23.30;75.72
71126;BME280;58785;55.566;38.058;2023-08-06T03:14:08;100662.47;;;23.44;75.13
71126;BME280;58785;55.566;38.058;2023-08-06T03:16:34;100657.16;;;23.62;74.93
71126;BME280;58785;55.566;38.058;2023-08-06T03:19:00;100660.81;;;23.81;74.16
71126;BME280;58785;55.566;38.058;2023-08-06T03:21:26;100657.34;;;23.99;73.72
71126;BME280;58785;55.566;38.058;2023-08-06T03:23:51;100655.72;;;24.16;72.95
71126;BME280;58785;55.566;38.058;2023-08-06T03:26:17;100656.41;;;24.30;72.45
71126;BME280;58785;55.566;38.058;2023-08-06T03:28:43;100653.22;;;24.40;71.85
71126;BME280;58785;55.566;38.058;2023-08-06T03:31:09;100655.56;;;24.54;71.54
71126;BME280;58785;55.566;38.058;2023-08-06T03:33:34;100665.97;;;24.64;71.03
71126;BME280;58785;55.566;38.058;2023-08-06T03:36:00;100653.56;;;24.68;71.15
71126;BME280;58785;55.566;38.058;2023-08-06T03:38:26;100671.88;;;24.79;70.49
71126;BME280;58785;55.566;38.058;2023-08-06T03:40:53;100661.03;;;24.91;70.16
71126;BME280;58785;55.566;38.058;2023-08-06T03:43:19;100667.59;;;25.08;69.77
71126;BME280;58785;55.566;38.058;2023-08-06T03:45:44;100658.03;;;25.17;69.54
71126;BME280;58785;55.566;38.058;2023-08-06T03:48:11;100662.59;;;25.35;68.50
71126;BME280;58785;55.566;38.058;2023-08-06T03:50:37;100665.00;;;25.43;68.13
71126;BME280;58785;55.566;38.058;2023-08-06T03:53:04;100670.38;;;25.50;67.93
71126;BME280;58785;55.566;38.058;2023-08-06T03:55:30;100660.44;;;25.56;67.66
71126;BME280;58785;55.566;38.058;2023-08-06T03:57:55;100661.16;;;25.63;67.56
71126;BME280;58785;55.566;38.058;2023-08-06T04:00:21;100661.22;;;25.74;67.75
71126;BME280;58785;55.566;38.058;2023-08-06T04:02:47;100648.66;;;25.85;67.14
71126;BME280;58785;55.566;38.058;2023-08-06T04:05:13;100647.22;;;25.94;66.67
71126;BME280;58785;55.566;38.058;2023-08-06T04:07:39;100650.34;;;25.98;66.20
71126;BME280;58785;55.566;38.058;2023-08-06T04:10:05;100655.47;;;26.06;66.07
71126;BME280;58785;55.566;38.058;2023-08-06T04:12:32;100642.06;;;26.16;65.95
71126;BME280;58785;55.566;38.058;2023-08-06T04:15:02;100642.50;;;26.25;65.76
71126;BME280;58785;55.566;38.058;2023-08-06T04:17:32;100643.56;;;26.35;65.00
71126;BME280;58785;55.566;38.058;2023-08-06T04:19:58;100641.47;;;26.49;65.10
71126;BME280;58785;55.566;38.058;2023-08-06T04:22:24;100644.44;;;26.59;64.78
71126;BME280;58785;55.566;38.058;2023-08-06T04:24:50;100649.31;;;26.69;65.09
71126;BME280;58785;55.566;38.058;2023-08-06T04:27:17;100647.03;;;26.78;64.17
71126;BME280;58785;55.566;38.058;2023-08-06T04:29:43;100649.84;;;26.83;64.33
71126;BME280;58785;55.566;38.058;2023-08-06T04:32:10;100653.78;;;26.87;64.16
71126;BME280;58785;55.566;38.058;2023-08-06T04:34:36;100654.97;;;26.91;63.61
71126;BME280;58785;55.566;38.058;2023-08-06T04:37:02;100652.34;;;26.96;63.77
71126;BME280;58785;55.566;38.058;2023-08-06T04:39:29;100651.25;;;27.09;63.52
71126;BME280;58785;55.566;38.058;2023-08-06T04:41:58;100656.19;;;27.24;63.42
71126;BME280;58785;55.566;38.058;2023-08-06T04:44:24;100654.41;;;27.29;63.60
71126;BME280;58785;55.566;38.058;2023-08-06T04:46:50;100647.78;;;27.42;63.29
71126;BME280;58785;55.566;38.058;2023-08-06T04:49:17;100662.13;;;27.61;62.54
71126;BME280;58785;55.566;38.058;2023-08-06T04:51:42;100659.00;;;27.69;62.37
71126;BME280;58785;55.566;38.058;2023-08-06T04:54:08;100652.94;;;27.67;62.66
71126;BME280;58785;55.566;38.058;2023-08-06T04:56:34;100654.34;;;27.69;62.43
71126;BME280;58785;55.566;38.058;2023-08-06T04:58:59;100643.47;;;27.74;62.20
71126;BME280;58785;55.566;38.058;2023-08-06T05:01:25;100643.16;;;27.88;62.08
71126;BME280;58785;55.566;38.058;2023-08-06T05:03:51;100636.00;;;28.03;62.14
71126;BME280;58785;55.566;38.058;2023-08-06T05:06:17;100640.81;;;28.13;61.70
71126;BME280;58785;55.566;38.058;2023-08-06T05:08:42;100636.56;;;28.22;61.79
71126;BME280;58785;55.566;38.058;2023-08-06T05:11:09;100640.31;;;28.33;61.06
71126;BME280;58785;55.566;38.058;2023-08-06T05:13:34;100627.78;;;28.37;61.22
71126;BME280;58785;55.566;38.058;2023-08-06T05:16:00;100634.56;;;28.51;61.18
71126;BME280;58785;55.566;38.058;2023-08-06T05:18:26;100634.88;;;28.55;61.03
71126;BME280;58785;55.566;38.058;2023-08-06T05:20:52;100632.59;;;28.69;61.20
71126;BME280;58785;55.566;38.058;2023-08-06T05:23:17;100639.44;;;28.88;60.98
71126;BME280;58785;55.566;38.058;2023-08-06T05:25:43;100636.06;;;29.03;60.70
71126;BME280;58785;55.566;38.058;2023-08-06T05:28:09;100632.91;;;29.16;60.21
71126;BME280;58785;55.566;38.058;2023-08-06T05:30:39;100631.53;;;29.13;60.53
71126;BME280;58785;55.566;38.058;2023-08-06T05:33:04;100627.50;;;29.21;60.30
71126;BME280;58785;55.566;38.058;2023-08-06T05:35:30;100627.59;;;29.31;59.55
71126;BME280;58785;55.566;38.058;2023-08-06T05:37:56;100630.34;;;29.31;59.88
71126;BME280;58785;55.566;38.058;2023-08-06T05:40:21;100622.19;;;29.36;59.19
71126;BME280;58785;55.566;38.058;2023-08-06T05:42:47;100633.59;;;29.50;59.49
71126;BME280;58785;55.566;38.058;2023-08-06T05:45:13;100629.56;;;29.58;58.76
71126;BME280;58785;55.566;38.058;2023-08-06T05:47:39;100632.88;;;29.60;59.16
71126;BME280;58785;55.566;38.058;2023-08-06T05:50:06;100634.53;;;29.61;59.06
71126;BME280;58785;55.566;38.058;2023-08-06T05:52:32;100637.06;;;29.67;58.51
71126;BME280;58785;55.566;38.058;2023-08-06T05:54:58;100633.00;;;29.75;58.47
71126;BME280;58785;55.566;38.058;2023-08-06T05:57:24;100625.44;;;29.87;58.08
71126;BME280;58785;55.566;38.058;2023-08-06T05:59:50;100628.50;;;29.96;57.77
71126;BME280;58785;55.566;38.058;2023-08-06T06:02:15;100627.75;;;30.05;58.03
71126;BME280;58785;55.566;38.058;2023-08-06T06:04:44;100624.81;;;30.12;58.40
71126;BME280;58785;55.566;38.058;2023-08-06T06:07:10;100631.28;;;30.33;57.82
71126;BME280;58785;55.566;38.058;2023-08-06T06:09:35;100627.22;;;30.46;57.69
71126;BME280;58785;55.566;38.058;2023-08-06T06:12:02;100623.13;;;30.48;57.15
71126;BME280;58785;55.566;38.058;2023-08-06T06:14:28;100625.88;;;30.53;57.01
71126;BME280;58785;55.566;38.058;2023-08-06T06:16:54;100626.81;;;30.64;57.44
71126;BME280;58785;55.566;38.058;2023-08-06T06:19:19;100620.25;;;30.75;56.77
71126;BME280;58785;55.566;38.058;2023-08-06T06:21:45;100620.28;;;30.85;56.14
71126;BME280;58785;55.566;38.058;2023-08-06T06:24:11;100618.13;;;30.93;56.19
71126;BME280;58785;55.566;38.058;2023-08-06T06:26:37;100610.69;;;30.93;56.32
71126;BME280;58785;55.566;38.058;2023-08-06T06:29:02;100619.81;;;31.04;56.27
71126;BME280;58785;55.566;38.058;2023-08-06T06:31:28;100619.84;;;31.19;56.27
71126;BME280;58785;55.566;38.058;2023-08-06T06:33:53;100610.81;;;31.29;55.92
71126;BME280;58785;55.566;38.058;2023-08-06T06:36:20;100612.19;;;31.36;55.35
71126;BME280;58785;55.566;38.058;2023-08-06T06:38:46;100613.31;;;31.40;56.10
71126;BME280;58785;55.566;38.058;2023-08-06T06:41:11;100620.75;;;31.45;55.88
71126;BME280;58785;55.566;38.058;2023-08-06T06:43:37;100606.69;;;31.46;56.14
71126;BME280;58785;55.566;38.058;2023-08-06T06:46:05;100607.53;;;31.47;55.85
71126;BME280;58785;55.566;38.058;2023-08-06T06:48:32;100612.50;;;31.55;56.05
71126;BME280;58785;55.566;38.058;2023-08-06T06:50:59;100603.66;;;31.53;55.77
71126;BME280;58785;55.566;38.058;2023-08-06T06:53:25;100607.81;;;31.56;55.52
71126;BME280;58785;55.566;38.058;2023-08-06T06:56:02;100610.28;;;31.62;55.62
71126;BME280;58785;55.566;38.058;2023-08-06T06:58:28;100615.81;;;31.52;55.74
71126;BME280;58785;55.566;38.058;2023-08-06T07:00:54;100607.81;;;31.51;55.11
71126;BME280;58785;55.566;38.058;2023-08-06T07:03:20;100609.19;;;31.48;55.39
71126;BME280;58785;55.566;38.058;2023-08-06T07:05:46;100611.94;;;31.38;55.66
71126;BME280;58785;55.566;38.058;2023-08-06T07:08:12;100613.84;;;31.32;55.58
71126;BME280;58785;55.566;38.058;2023-08-06T07:10:40;100614.41;;;31.34;55.59
71126;BME280;58785;55.566;38.058;2023-08-06T07:13:07;100602.03;;;31.37;55.57
71126;BME280;58785;55.566;38.058;2023-08-06T07:15:32;100600.66;;;31.50;55.98
71126;BME280;58785;55.566;38.058;2023-08-06T07:17:58;100600.63;;;31.65;55.59
71126;BME280;58785;55.566;38.058;2023-08-06T07:20:24;100588.25;;;31.67;55.35
71126;BME280;58785;55.566;38.058;2023-08-06T07:22:49;100592.41;;;31.80;55.10
71126;BME280;58785;55.566;38.058;2023-08-06T07:25:16;100591.03;;;31.88;54.86
71126;BME280;58785;55.566;38.058;2023-08-06T07:27:42;100589.91;;;31.99;54.94
71126;BME280;58785;55.566;38.058;2023-08-06T07:30:08;100594.88;;;32.07;54.77
71126;BME280;58785;55.566;38.058;2023-08-06T07:32:34;100588.25;;;32.03;54.67
71126;BME280;58785;55.566;38.058;2023-08-06T07:35:00;100592.38;;;32.11;54.86
71126;BME280;58785;55.566;38.058;2023-08-06T07:37:30;100587.94;;;32.15;54.58
71126;BME280;58785;55.566;38.058;2023-08-06T07:39:56;100587.38;;;32.23;54.44
71126;BME280;58785;55.566;38.058;2023-08-06T07:42:22;100590.41;;;32.16;54.03
71126;BME280;58785;55.566;38.058;2023-08-06T07:44:53;100591.00;;;32.08;54.12
71126;BME280;58785;55.566;38.058;2023-08-06T07:47:19;100588.78;;;32.05;54.25
71126;BME280;58785;55.566;38.058;2023-08-06T07:49:45;100587.13;;;32.04;53.79
71126;BME280;58785;55.566;38.058;2023-08-06T07:52:11;100587.13;;;32.14;53.55
71126;BME280;58785;55.566;38.058;2023-08-06T07:54:37;100586.00;;;32.15;52.94
71126;BME280;58785;55.566;38.058;2023-08-06T07:57:03;100579.09;;;32.23;53.01
71126;BME280;58785;55.566;38.058;2023-08-06T07:59:29;100583.78;;;32.27;52.99
71126;BME280;58785;55.566;38.058;2023-08-06T08:01:55;100576.06;;;32.19;52.64
71126;BME280;58785;55.566;38.058;2023-08-06T08:04:20;100584.91;;;32.16;52.00
71126;BME280;58785;55.566;38.058;2023-08-06T08:06:46;100578.03;;;32.03;52.33
71126;BME280;58785;55.566;38.058;2023-08-06T08:09:13;100583.53;;;32.14;52.05
71126;BME280;58785;55.566;38.058;2023-08-06T08:11:42;100581.84;;;32.23;51.56
71126;BME280;58785;55.566;38.058;2023-08-06T08:14:08;100563.38;;;32.28;51.37
71126;BME280;58785;55.566;38.058;2023-08-06T08:16:33;100574.44;;;32.18;51.00
71126;BME280;58785;55.566;38.058;2023-08-06T08:18:59;100572.78;;;32.17;50.94
71126;BME280;58785;55.566;38.058;2023-08-06T08:21:25;100569.75;;;32.09;51.17
71126;BME280;58785;55.566;38.058;2023-08-06T08:23:51;100559.28;;;31.95;50.79
71126;BME280;58785;55.566;38.058;2023-08-06T08:26:17;100564.81;;;32.00;51.28
71126;BME280;58785;55.566;38.058;2023-08-06T08:28:42;100571.41;;;32.10;51.24
71126;BME280;58785;55.566;38.058;2023-08-06T08:31:11;100561.47;;;32.09;51.31
71126;BME280;58785;55.566;38.058;2023-08-06T08:33:38;100561.72;;;32.12;51.17
71126;BME280;58785;55.566;38.058;2023-08-06T08:36:04;100554.56;;;32.11;50.65
71126;BME280;58785;55.566;38.058;2023-08-06T08:38:30;100557.06;;;32.08;50.77
71126;BME280;58785;55.566;38.058;2023-08-06T08:40:55;100558.44;;;32.10;50.56
71126;BME280;58785;55.566;38.058;2023-08-06T08:43:22;100554.56;;;32.11;51.30
71126;BME280;58785;55.566;38.058;2023-08-06T08:45:52;100557.31;;;32.11;51.37
71126;BME280;58785;55.566;38.058;2023-08-06T08:48:21;100551.53;;;32.18;51.16
71126;BME280;58785;55.566;38.058;2023-08-06T08:50:49;100552.03;;;32.25;50.63
71126;BME280;58785;55.566;38.058;2023-08-06T08:53:16;100555.09;;;32.18;51.07
71126;BME280;58785;55.566;38.058;2023-08-06T08:55:47;100558.69;;;32.14;51.00
71126;BME280;58785;55.566;38.058;2023-08-06T08:58:14;100548.47;;;32.14;51.01
71126;BME280;58785;55.566;38.058;2023-08-06T09:00:45;100546.25;;;32.16;51.00
71126;BME280;58785;55.566;38.058;2023-08-06T09:03:11;100534.44;;;32.11;51.63
71126;BME280;58785;55.566;38.058;2023-08-06T09:05:43;100541.56;;;32.17;51.49
71126;BME280;58785;55.566;38.058;2023-08-06T09:08:11;100542.66;;;32.21;51.49
71126;BME280;58785;55.566;38.058;2023-08-06T09:10:39;100545.44;;;32.21;50.84
71126;BME280;58785;55.566;38.058;2023-08-06T09:13:06;100535.78;;;32.13;51.23
71126;BME280;58785;55.566;38.058;2023-08-06T09:15:32;100532.78;;;32.10;51.29
71126;BME280;58785;55.566;38.058;2023-08-06T09:17:59;100531.94;;;32.04;51.42
71126;BME280;58785;55.566;38.058;2023-08-06T09:20:24;100536.38;;;32.00;51.10
71126;BME280;58785;55.566;38.058;2023-08-06T09:22:52;100534.75;;;31.89;51.12
71126;BME280;58785;55.566;38.058;2023-08-06T09:25:23;100532.00;;;31.89;51.29
71126;BME280;58785;55.566;38.058;2023-08-06T09:27:51;100532.53;;;31.91;51.36
71126;BME280;58785;55.566;38.058;2023-08-06T09:30:31;100536.13;;;31.91;51.14
71126;BME280;58785;55.566;38.058;2023-08-06T09:32:58;100525.66;;;31.83;51.28
71126;BME280;58785;55.566;38.058;2023-08-06T09:35:24;100527.88;;;31.81;51.62
71126;BME280;58785;55.566;38.058;2023-08-06T09:37:50;100533.91;;;31.83;52.07
71126;BME280;58785;55.566;38.058;2023-08-06T09:40:28;100525.66;;;31.88;51.98
71126;BME280;58785;55.566;38.058;2023-08-06T09:42:55;100525.38;;;31.85;51.60
71126;BME280;58785;55.566;38.058;2023-08-06T09:45:21;100527.00;;;31.86;51.73
71126;BME280;58785;55.566;38.058;2023-08-06T09:47:49;100523.72;;;31.89;51.61
71126;BME280;58785;55.566;38.058;2023-08-06T09:50:18;100520.13;;;31.88;51.51
71126;BME280;58785;55.566;38.058;2023-08-06T09:52:46;100516.53;;;31.83;51.46
71126;BME280;58785;55.566;38.058;2023-08-06T09:55:13;100520.13;;;31.73;51.76
71126;BME280;58785;55.566;38.058;2023-08-06T09:57:40;100505.78;;;31.66;52.30
71126;BME280;58785;55.566;38.058;2023-08-06T10:00:07;100504.66;;;31.72;52.14
71126;BME280;58785;55.566;38.058;2023-08-06T10:02:39;100495.00;;;31.74;52.44
71126;BME280;58785;55.566;38.058;2023-08-06T10:05:05;100497.25;;;31.78;51.95
71126;BME280;58785;55.566;38.058;2023-08-06T10:07:31;100500.56;;;31.80;52.08
71126;BME280;58785;55.566;38.058;2023-08-06T10:09:58;100498.34;;;31.77;52.49
71126;BME280;58785;55.566;38.058;2023-08-06T10:12:25;100494.75;;;31.81;51.71
71126;BME280;58785;55.566;38.058;2023-08-06T10:14:56;100490.06;;;31.82;51.46
71126;BME280;58785;55.566;38.058;2023-08-06T10:17:23;100485.38;;;31.82;51.60
71126;BME280;58785;55.566;38.058;2023-08-06T10:19:51;100486.47;;;31.76;51.47
71126;BME280;58785;55.566;38.058;2023-08-06T10:22:20;100486.47;;;31.76;51.18
71126;BME280;58785;55.566;38.058;2023-08-06T10:24:56;100481.22;;;31.74;51.48
71126;BME280;58785;55.566;38.058;2023-08-06T10:27:30;100463.88;;;31.69;52.10
71126;BME280;58785;55.566;38.058;2023-08-06T10:30:24;100483.16;;;31.84;52.45
71126;BME280;58785;55.566;38.058;2023-08-06T10:32:51;100484.53;;;31.87;52.91
71126;BME280;58785;55.566;38.058;2023-08-06T10:38:09;100478.75;;;31.88;52.69
71126;BME280;58785;55.566;38.058;2023-08-06T10:40:40;100477.09;;;31.87;52.95
71126;BME280;58785;55.566;38.058;2023-08-06T10:43:06;100477.38;;;31.91;52.16
71126;BME280;58785;55.566;38.058;2023-08-06T10:45:37;100472.09;;;31.94;52.54
71126;BME280;58785;55.566;38.058;2023-08-06T10:48:04;100459.97;;;31.90;52.36
71126;BME280;58785;55.566;38.058;2023-08-06T10:50:30;100474.56;;;31.96;52.25
71126;BME280;58785;55.566;38.058;2023-08-06T10:52:57;100474.84;;;31.94;52.47
71126;BME280;58785;55.566;38.058;2023-08-06T10:55:29;100468.53;;;31.89;52.23
71126;BME280;58785;55.566;38.058;2023-08-06T10:57:56;100466.59;;;31.89;52.97
71126;BME280;58785;55.566;38.058;2023-08-06T11:00:23;100464.69;;;31.90;52.60
71126;BME280;58785;55.566;38.058;2023-08-06T11:02:50;100454.19;;;31.92;52.60
71126;BME280;58785;55.566;38.058;2023-08-06T11:05:16;100453.13;;;31.67;52.61
71126;BME280;58785;55.566;38.058;2023-08-06T11:07:43;100465.53;;;31.44;52.85
71126;BME280;58785;55.566;38.058;2023-08-06T11:10:12;100458.41;;;31.38;52.97
71126;BME280;58785;55.566;38.058;2023-08-06T11:12:39;100455.91;;;31.47;52.97
71126;BME280;58785;55.566;38.058;2023-08-06T11:15:05;100449.00;;;31.44;52.93
71126;BME280;58785;55.566;38.058;2023-08-06T11:17:34;100447.66;;;31.47;53.39
71126;BME280;58785;55.566;38.058;2023-08-06T11:20:03;100448.16;;;31.59;53.56
71126;BME280;58785;55.566;38.058;2023-08-06T11:22:33;100453.38;;;31.71;53.82
71126;BME280;58785;55.566;38.058;2023-08-06T11:24:59;100451.72;;;31.75;52.92
71126;BME280;58785;55.566;38.058;2023-08-06T11:27:27;100448.69;;;31.71;52.59
71126;BME280;58785;55.566;38.058;2023-08-06T11:29:55;100450.34;;;31.72;51.99
71126;BME280;58785;55.566;38.058;2023-08-06T11:32:21;100443.47;;;31.70;52.23
71126;BME280;58785;55.566;38.058;2023-08-06T11:34:47;100441.25;;;31.72;52.75
71126;BME280;58785;55.566;38.058;2023-08-06T11:37:12;100445.94;;;31.82;53.26
71126;BME280;58785;55.566;38.058;2023-08-06T11:39:38;100448.94;;;31.90;52.81
71126;BME280;58785;55.566;38.058;2023-08-06T11:42:07;100449.50;;;31.92;52.61
71126;BME280;58785;55.566;38.058;2023-08-06T11:44:37;100438.75;;;31.91;51.74
71126;BME280;58785;55.566;38.058;2023-08-06T11:47:04;100435.72;;;31.87;51.92
71126;BME280;58785;55.566;38.058;2023-08-06T11:49:41;100443.44;;;31.85;52.21
71126;BME280;58785;55.566;38.058;2023-08-06T11:54:38;100434.91;;;31.66;51.82
71126;BME280;58785;55.566;38.058;2023-08-06T11:57:07;100427.22;;;31.43;52.21
71126;BME280;58785;55.566;38.058;2023-08-06T11:59:32;100434.44;;;31.29;52.76
71126;BME280;58785;55.566;38.058;2023-08-06T12:02:01;100414.31;;;31.28;52.80
71126;BME280;58785;55.566;38.058;2023-08-06T12:04:27;100434.69;;;31.37;52.41
71126;BME280;58785;55.566;38.058;2023-08-06T12:06:53;100416.78;;;31.40;52.44
71126;BME280;58785;55.566;38.058;2023-08-06T12:09:19;100420.91;;;31.42;51.85
71126;BME280;58785;55.566;38.058;2023-08-06T12:11:46;100410.72;;;31.33;51.97
71126;BME280;58785;55.566;38.058;2023-08-06T12:14:11;100423.41;;;31.29;52.36
71126;BME280;58785;55.566;38.058;2023-08-06T12:16:37;100418.16;;;31.17;53.09
71126;BME280;58785;55.566;38.058;2023-08-06T12:19:03;100418.97;;;31.17;52.84
71126;BME280;58785;55.566;38.058;2023-08-06T12:21:29;100415.94;;;31.24;53.14
71126;BME280;58785;55.566;38.058;2023-08-06T12:23:55;100406.88;;;31.29;52.46
71126;BME280;58785;55.566;38.058;2023-08-06T12:26:21;100405.75;;;31.30;52.57
71126;BME280;58785;55.566;38.058;2023-08-06T12:28:46;100419.25;;;31.36;51.99
71126;BME280;58785;55.566;38.058;2023-08-06T12:31:12;100407.38;;;31.36;52.44
71126;BME280;58785;55.566;38.058;2023-08-06T12:33:38;100407.13;;;31.37;52.35
71126;BME280;58785;55.566;38.058;2023-08-06T12:36:04;100412.38;;;31.39;52.80
71126;BME280;58785;55.566;38.058;2023-08-06T12:38:30;100408.50;;;31.40;52.96
71126;BME280;58785;55.566;38.058;2023-08-06T12:40:59;100401.34;;;31.39;53.42
71126;BME280;58785;55.566;38.058;2023-08-06T12:43:24;100401.59;;;31.42;52.96